Time;durP1;ratioP1;P1;durP2;ratioP2;P2;SDS_P1;SDS_P2;PMS_P1;PMS_P2;Temp;Humidity;BMP_temperature;BMP_pressure;BME280_temperature;BME280_humidity;BME280_pressure;Samples;Min_cycle;Max_cycle;Signal;HPM_P1;HPM_P2
2022/07/05 00:00:16;;;;;;;18.23;17.40;;;;;;;15.96;100.00;102310.77;2000808;71;33447;-70
2022/07/05 00:06:01;;;;;;;18.47;17.60;;;;;;;15.91;100.00;102312.21;2015258;71;32844;-70
2022/07/05 00:11:45;;;;;;;19.50;18.70;;;;;;;15.81;100.00;102315.88;2006130;71;32847;-70
2022/07/05 00:17:29;;;;;;;21.43;20.40;;;;;;;15.56;100.00;102317.34;2015350;71;32971;-70
2022/07/05 00:23:14;;;;;;;21.90;20.83;;;;;;;15.55;100.00;102320.42;2004722;71;32867;-70
2022/07/05 00:28:58;;;;;;;22.73;21.53;;;;;;;15.45;100.00;102319.84;2015127;71;32838;-70
2022/07/05 00:34:44;;;;;;;21.83;20.83;;;;;;;15.52;100.00;102322.39;2006582;71;32849;-70
2022/07/05 00:40:28;;;;;;;22.43;21.33;;;;;;;15.47;100.00;102326.85;2000498;71;32825;-70
2022/07/05 00:46:12;;;;;;;22.53;21.43;;;;;;;15.38;100.00;102329.94;2011374;71;32862;-70
2022/07/05 00:51:57;;;;;;;24.53;23.23;;;;;;;15.35;100.00;102327.70;2020771;71;32898;-70
2022/07/05 00:57:41;;;;;;;25.40;24.20;;;;;;;15.29;100.00;102327.42;2015524;71;33381;-70
2022/07/05 01:03:28;;;;;;;24.63;23.43;;;;;;;15.16;100.00;102318.19;2009770;71;33353;-70
2022/07/05 01:09:13;;;;;;;25.33;24.03;;;;;;;15.12;100.00;102315.67;2017080;71;32992;-70
2022/07/05 01:14:59;;;;;;;26.07;24.67;;;;;;;15.03;100.00;102317.34;2006707;71;32710;-70
2022/07/05 01:20:44;;;;;;;25.73;24.43;;;;;;;15.03;100.00;102316.79;2016817;71;32833;-70
2022/07/05 01:26:28;;;;;;;26.87;25.37;;;;;;;15.02;100.00;102312.30;2018736;71;32871;-70
2022/07/05 01:32:13;;;;;;;27.47;26.07;;;;;;;14.91;100.00;102321.83;2008492;71;33359;-70
2022/07/05 01:37:58;;;;;;;28.43;26.87;;;;;;;14.87;100.00;102326.86;2018904;71;33456;-70
2022/07/05 01:43:43;;;;;;;28.60;26.90;;;;;;;14.78;100.00;102325.72;1991904;71;33224;-70
2022/07/05 01:49:28;;;;;;;29.80;28.10;;;;;;;14.76;100.00;102323.19;2011388;71;32968;-70
2022/07/05 01:55:15;;;;;;;29.53;27.77;;;;;;;14.68;100.00;102318.70;1995739;71;33217;-70
2022/07/05 02:01:00;;;;;;;30.50;28.90;;;;;;;14.62;100.00;102332.41;2015026;71;32850;-70
2022/07/05 02:06:45;;;;;;;31.53;29.83;;;;;;;14.70;100.00;102329.06;2013439;71;33387;-70
2022/07/05 02:12:30;;;;;;;32.03;30.23;;;;;;;14.52;100.00;102322.03;2008141;71;32747;-70
2022/07/05 02:18:14;;;;;;;33.87;31.77;;;;;;;14.59;100.00;102328.19;2010021;71;32730;-70
2022/07/05 02:23:59;;;;;;;35.40;33.40;;;;;;;14.48;100.00;102322.30;2013251;70;33278;-70
2022/07/05 02:29:43;;;;;;;38.27;36.17;;;;;;;14.44;100.00;102339.35;2013327;71;32920;-70
2022/07/05 02:35:28;;;;;;;39.90;37.57;;;;;;;14.32;100.00;102339.57;2002875;71;32794;-70
2022/07/05 02:41:13;;;;;;;40.43;38.20;;;;;;;14.26;100.00;102332.81;2013733;71;32897;-70
2022/07/05 02:46:58;;;;;;;40.37;38.17;;;;;;;14.23;100.00;102331.42;2015438;71;33449;-70
2022/07/05 02:52:47;;;;;;;42.53;40.23;;;;;;;14.03;100.00;102333.55;1995696;71;33296;-70
2022/07/05 02:58:31;;;;;;;43.17;40.87;;;;;;;14.11;100.00;102331.66;2017156;71;33473;-70
2022/07/05 03:04:16;;;;;;;43.80;41.37;;;;;;;14.11;100.00;102328.03;2016862;71;32894;-70
2022/07/05 03:10:00;;;;;;;44.40;42.00;;;;;;;14.03;100.00;102334.95;1998817;71;32839;-70
2022/07/05 03:15:44;;;;;;;44.67;42.17;;;;;;;14.04;100.00;102335.24;2011626;71;32846;-70
2022/07/05 03:21:29;;;;;;;44.93;42.43;;;;;;;13.89;100.00;102338.53;1999096;71;32846;-70
2022/07/05 03:27:13;;;;;;;45.43;42.83;;;;;;;14.02;100.00;102340.84;2008475;71;32839;-68
2022/07/05 03:32:58;;;;;;;43.47;41.07;;;;;;;14.00;100.00;102343.89;2009786;71;33418;-68
2022/07/05 03:38:44;;;;;;;45.70;43.27;;;;;;;13.82;100.00;102343.53;2002690;71;33435;-68
2022/07/05 03:44:31;;;;;;;44.10;41.60;;;;;;;13.84;100.00;102341.29;2017275;71;33318;-68
2022/07/05 03:50:14;;;;;;;46.10;43.50;;;;;;;13.48;100.00;102345.24;2016982;71;32903;-68
2022/07/05 03:55:58;;;;;;;50.30;47.40;;;;;;;13.01;100.00;102361.00;2018861;71;33366;-67
2022/07/05 04:01:42;;;;;;;52.17;49.10;;;;;;;12.70;100.00;102368.25;1945862;71;39577;-70
2022/07/05 04:07:28;;;;;;;53.27;50.27;;;;;;;12.68;100.00;102367.10;2006154;71;32828;-70
2022/07/05 04:13:12;;;;;;;54.30;51.20;;;;;;;12.56;100.00;102370.59;2017236;71;33322;-70
2022/07/05 04:18:56;;;;;;;53.80;50.70;;;;;;;12.86;100.00;102381.78;2008392;71;33016;-70
2022/07/05 04:30:43;;;;;;;50.30;47.40;;;;;;;13.40;100.00;102367.23;2001034;71;32767;-70
2022/07/05 04:36:28;;;;;;;50.23;47.33;;;;;;;13.42;100.00;102367.27;2011926;71;32785;-70
2022/07/05 04:42:12;;;;;;;49.40;46.60;;;;;;;13.63;100.00;102372.45;2008380;71;32885;-70
2022/07/05 04:47:56;;;;;;;48.23;45.63;;;;;;;13.66;100.00;102368.55;2016892;71;32826;-70
2022/07/05 04:53:53;;;;;;;48.60;45.80;;;;;;;13.56;100.00;102373.24;2013356;71;33339;-70
2022/07/05 04:59:35;;;;;;;47.07;44.40;;;;;;;13.67;100.00;102375.83;2017253;71;32833;-70
2022/07/05 05:05:20;;;;;;;48.47;45.67;;;;;;;13.68;100.00;102372.48;2010212;71;32768;-71
2022/07/05 05:11:05;;;;;;;46.00;43.40;;;;;;;13.85;100.00;102379.29;1999191;71;32827;-70
2022/07/05 05:16:51;;;;;;;47.40;44.80;;;;;;;13.79;100.00;102377.56;2015331;71;33017;-70
2022/07/05 05:22:35;;;;;;;46.67;44.17;;;;;;;13.87;100.00;102392.42;2012053;71;32820;-70
2022/07/05 05:28:21;;;;;;;47.10;44.60;;;;;;;13.97;100.00;102409.25;2014997;71;32886;-70
2022/07/05 05:34:05;;;;;;;48.30;45.70;;;;;;;13.97;100.00;102409.25;2015302;71;32861;-70
2022/07/05 05:39:50;;;;;;;49.90;47.20;;;;;;;13.91;100.00;102419.55;2009588;71;32881;-70
2022/07/05 05:45:34;;;;;;;50.77;47.97;;;;;;;13.95;100.00;102414.25;2008136;70;32760;-70
2022/07/05 05:51:20;;;;;;;49.00;46.40;;;;;;;13.96;100.00;102422.38;2006488;71;32764;-70
2022/07/05 05:57:06;;;;;;;50.63;47.73;;;;;;;14.15;100.00;102413.00;2002541;71;32991;-69
2022/07/05 06:02:52;;;;;;;48.10;45.50;;;;;;;14.29;100.00;102428.14;2013313;71;33324;-70
2022/07/05 06:08:40;;;;;;;47.80;45.23;;;;;;;14.39;100.00;102435.78;2004435;70;32942;-70
2022/07/05 06:14:25;;;;;;;48.40;45.80;;;;;;;14.42;100.00;102435.23;2017250;71;33347;-70
2022/07/05 06:20:15;;;;;;;45.60;43.00;;;;;;;14.44;100.00;102439.45;2016774;71;32974;-70
2022/07/05 06:25:59;;;;;;;44.03;41.73;;;;;;;14.58;100.00;102442.59;1995546;70;32873;-70
2022/07/05 06:31:44;;;;;;;45.30;43.00;;;;;;;14.70;100.00;102446.55;2011408;71;32892;-70
2022/07/05 06:37:28;;;;;;;46.43;44.10;;;;;;;14.75;100.00;102459.16;2017090;71;33337;-70
2022/07/05 06:43:14;;;;;;;42.37;40.17;;;;;;;15.00;100.00;102453.09;2000739;71;32972;-69
2022/07/05 06:48:58;;;;;;;39.93;37.70;;;;;;;15.11;100.00;102458.13;2008075;71;32883;-69
2022/07/05 06:54:43;;;;;;;39.97;37.67;;;;;;;15.26;100.00;102459.58;2017250;71;33392;-70
2022/07/05 07:00:28;;;;;;;39.60;37.27;;;;;;;15.39;100.00;102459.59;2013511;71;32873;-69
2022/07/05 07:06:13;;;;;;;41.83;39.43;;;;;;;15.64;100.00;102457.39;2006572;71;32830;-67
2022/07/05 07:11:59;;;;;;;40.13;38.03;;;;;;;15.85;100.00;102465.52;2002973;71;33266;-69
2022/07/05 07:17:45;;;;;;;38.20;36.00;;;;;;;16.03;100.00;102472.50;2017104;71;32814;-71
2022/07/05 07:23:30;;;;;;;33.37;31.33;;;;;;;16.17;100.00;102467.16;2000971;71;32887;-69
2022/07/05 07:29:14;;;;;;;36.73;34.73;;;;;;;16.31;100.00;102462.61;2006094;71;32831;-73
2022/07/05 07:34:58;;;;;;;32.87;31.17;;;;;;;16.58;100.00;102467.34;2017203;71;33397;-69
2022/07/05 07:40:42;;;;;;;26.90;25.23;;;;;;;17.03;100.00;102466.86;1995004;71;32814;-70
2022/07/05 07:46:27;;;;;;;26.53;25.03;;;;;;;17.67;100.00;102466.72;2004685;71;32765;-70
2022/07/05 07:52:12;;;;;;;25.87;24.57;;;;;;;18.03;100.00;102470.03;2009943;71;33337;-70
2022/07/05 07:57:56;;;;;;;25.73;24.43;;;;;;;18.38;100.00;102472.48;2003960;71;32813;-70
2022/07/05 08:03:40;;;;;;;23.10;22.10;;;;;;;18.59;100.00;102467.48;2002517;71;30898;-70
2022/07/05 08:09:25;;;;;;;21.07;20.03;;;;;;;18.98;100.00;102468.66;2016980;71;30904;-70
2022/07/05 08:15:11;;;;;;;17.10;16.20;;;;;;;19.13;100.00;102464.77;2008587;71;33338;-70
2022/07/05 08:26:58;;;;;;;10.77;10.27;;;;;;;19.90;100.00;102463.28;2015294;71;33344;-71
2022/07/05 08:32:43;;;;;;;10.57;10.07;;;;;;;20.48;100.00;102463.63;2006116;71;30877;-70
2022/07/05 08:35:15;;;;;;;10.57;10.07;;;;;;;20.65;100.00;102463.84;1985614;72;24225;-70
2022/07/05 08:41:00;;;;;;;10.00;9.43;;;;;;;20.85;100.00;102457.75;2009905;71;30931;-71
2022/07/05 08:46:47;;;;;;;10.53;10.03;;;;;;;20.64;100.00;102459.91;1997482;71;31280;-70
2022/07/05 08:52:36;;;;;;;11.07;10.57;;;;;;;19.83;100.00;102469.90;2008086;71;31019;-70
2022/07/05 08:58:22;;;;;;;10.30;9.80;;;;;;;20.09;100.00;102469.72;2015121;71;30994;-71
2022/07/05 09:04:16;;;;;;;11.47;10.90;;;;;;;21.13;100.00;102456.33;2004892;70;30905;-70
2022/07/05 09:10:04;;;;;;;11.33;10.73;;;;;;;21.39;100.00;102460.23;2016948;71;31405;-70
2022/07/05 09:15:49;;;;;;;11.23;10.53;;;;;;;21.78;100.00;102463.75;2012168;71;30831;-70
2022/07/05 09:22:04;;;;;;;10.67;10.10;;;;;;;21.59;100.00;102464.55;2016961;71;30989;-70
2022/07/05 09:27:53;;;;;;;11.23;10.67;;;;;;;21.27;100.00;102479.72;2001169;71;30914;-69
2022/07/05 09:33:53;;;;;;;11.33;10.63;;;;;;;21.20;100.00;102466.61;2016815;71;30917;-70
2022/07/05 09:39:40;;;;;;;10.47;9.93;;;;;;;21.25;100.00;102470.16;1995440;71;30948;-71
2022/07/05 09:45:32;;;;;;;11.10;10.40;;;;;;;21.25;100.00;102464.51;1995481;71;30904;-72
2022/07/05 09:51:16;;;;;;;11.90;11.30;;;;;;;21.16;100.00;102466.98;2005873;71;30897;-74
2022/07/05 09:57:04;;;;;;;10.70;10.00;;;;;;;21.26;100.00;102471.84;2001150;71;30844;-71
2022/07/05 09:59:33;;;;;;;10.50;9.90;;;;;;;;;;1970175;72;24224;-71
2022/07/05 10:05:19;;;;;;;9.20;8.63;;;;;;;21.33;100.00;102473.64;2016786;71;30969;-72
2022/07/05 10:11:06;;;;;;;12.90;10.30;;;;;;;21.26;100.00;102469.59;1995213;71;33369;-72
2022/07/05 10:16:58;;;;;;;9.70;9.20;;;;;;;21.31;100.00;102482.17;1997304;71;30795;-73
2022/07/05 10:22:45;;;;;;;10.03;9.53;;;;;;;21.26;100.00;102496.45;2015075;71;30971;-73
2022/07/05 10:28:31;;;;;;;9.77;9.30;;;;;;;21.22;100.00;102494.00;2015156;71;33373;-73
2022/07/05 10:34:17;;;;;;;9.97;9.37;;;;;;;21.22;100.00;102492.58;2004202;71;31361;-72
2022/07/05 10:40:02;;;;;;;10.40;9.70;;;;;;;21.24;100.00;102495.34;2004165;71;30920;-73
2022/07/05 10:45:51;;;;;;;10.13;9.63;;;;;;;21.24;100.00;102491.09;2013836;71;30833;-72
2022/07/05 10:51:37;;;;;;;9.63;9.20;;;;;;;21.38;100.00;102491.64;2003983;71;30954;-72
2022/07/05 10:57:24;;;;;;;10.07;9.57;;;;;;;21.33;100.00;102487.78;2006552;71;30890;-73
2022/07/05 11:03:36;;;;;;;10.63;10.03;;;;;;;21.34;100.00;102495.11;1991666;71;30842;-73
2022/07/05 11:09:22;;;;;;;10.13;9.70;;;;;;;21.31;100.00;102497.72;1997638;71;31339;-72
2022/07/05 11:15:37;;;;;;;10.17;9.67;;;;;;;21.69;100.00;102495.41;2006705;71;31366;-71
2022/07/05 11:21:40;;;;;;;10.23;9.65;;;;;;;22.09;100.00;102483.64;2000635;71;30984;-73
2022/07/05 11:27:39;;;;;;;10.50;10.00;;;;;;;21.94;100.00;102487.73;1997294;71;30848;-73
2022/07/05 11:33:43;;;;;;;10.53;9.93;;;;;;;21.89;100.00;102476.50;2013466;71;30914;-73
2022/07/05 11:39:38;;;;;;;9.90;9.40;;;;;;;21.90;100.00;102491.48;2008444;71;31438;-73
2022/07/05 11:45:24;;;;;;;9.90;9.50;;;;;;;21.93;100.00;102485.20;2008515;71;30858;-73
2022/07/05 11:51:30;;;;;;;10.43;9.73;;;;;;;21.92;100.00;102483.49;2015348;70;30888;-73
2022/07/05 11:57:15;;;;;;;10.23;9.73;;;;;;;22.02;100.00;102485.53;2006103;71;30893;-73
2022/07/05 12:03:00;;;;;;;10.00;9.50;;;;;;;22.10;100.00;102481.08;1995187;71;31391;-73
2022/07/05 12:08:47;;;;;;;10.77;9.97;;;;;;;22.09;100.00;102490.14;2015391;71;30865;-72
2022/07/05 12:14:32;;;;;;;10.43;9.88;;;;;;;22.04;100.00;102485.19;2017319;70;33448;-74
2022/07/05 12:20:31;;;;;;;10.90;9.95;;;;;;;22.23;100.00;102483.82;2015051;71;30899;-73
2022/07/05 12:26:17;;;;;;;10.15;9.60;;;;;;;22.26;100.00;102472.41;1997352;71;30934;-71
2022/07/05 12:32:08;;;;;;;10.90;10.30;;;;;;;22.25;100.00;102476.40;2007167;71;31366;-73
2022/07/05 12:37:50;;;;;;;10.60;10.00;;;;;;;22.40;100.00;102475.99;2016881;71;30878;-73
2022/07/05 12:43:51;;;;;;;10.65;9.95;;;;;;;22.36;100.00;102468.47;2016968;71;30959;-73
2022/07/05 12:49:56;;;;;;;10.20;9.70;;;;;;;22.35;100.00;102475.29;2009845;71;31592;-74
2022/07/05 13:01:44;;;;;;;10.17;9.77;;;;;;;22.74;100.00;102471.65;2018886;71;31393;-73
2022/07/05 13:07:29;;;;;;;10.23;9.83;;;;;;;22.74;100.00;102468.23;2015084;71;30927;-74
2022/07/05 13:13:28;;;;;;;10.60;10.10;;;;;;;22.71;100.00;102459.56;2002530;71;30913;-74
2022/07/05 13:19:13;;;;;;;9.83;9.33;;;;;;;22.65;100.00;102451.18;1995694;71;30934;-73
2022/07/05 13:24:57;;;;;;;8.90;8.60;;;;;;;23.03;100.00;102444.95;1999233;71;30797;-74
2022/07/05 13:30:41;;;;;;;9.05;8.65;;;;;;;23.01;100.00;102452.98;2002615;71;31414;-71
2022/07/05 13:36:26;;;;;;;8.95;8.55;;;;;;;22.89;100.00;102455.02;1997424;71;31333;-74
2022/07/05 13:42:10;;;;;;;9.20;8.70;;;;;;;22.79;100.00;102447.42;1938577;70;31046;-70
2022/07/05 13:47:54;;;;;;;9.70;9.10;;;;;;;22.80;100.00;102458.44;2013615;71;31522;-73
2022/07/05 13:53:39;;;;;;;9.95;9.48;;;;;;;22.83;100.00;102458.34;2005081;71;31348;-72
2022/07/05 13:59:23;;;;;;;9.65;9.28;;;;;;;22.92;100.00;102463.45;2004266;71;30905;-73
2022/07/05 14:05:10;;;;;;;9.00;8.60;;;;;;;23.08;100.00;102461.81;2015231;71;31387;-73
2022/07/05 14:10:57;;;;;;;9.93;9.53;;;;;;;23.01;100.00;102463.73;2016832;71;30955;-74
2022/07/05 14:16:42;;;;;;;8.75;8.45;;;;;;;23.01;100.00;102452.40;2016962;71;30936;-74
2022/07/05 14:22:26;;;;;;;10.28;9.78;;;;;;;23.04;100.00;102469.31;2015148;71;30946;-73
2022/07/05 14:28:10;;;;;;;11.00;10.43;;;;;;;23.08;100.00;102468.33;2006668;71;30809;-72
2022/07/05 14:33:55;;;;;;;9.80;9.40;;;;;;;23.21;100.00;102470.76;2000662;70;31380;-74
2022/07/05 14:39:42;;;;;;;10.08;9.58;;;;;;;23.25;100.00;102470.34;2016871;71;30874;-74
2022/07/05 14:45:27;;;;;;;10.10;9.60;;;;;;;23.36;100.00;102466.00;2017145;71;31401;-74
2022/07/05 14:51:12;;;;;;;9.13;8.80;;;;;;;23.48;100.00;102466.23;2015297;71;30917;-75
2022/07/05 14:56:56;;;;;;;9.68;9.20;;;;;;;23.27;100.00;102470.86;2004899;71;31301;-74
2022/07/05 15:02:41;;;;;;;9.30;8.90;;;;;;;23.09;100.00;102477.09;2018745;71;30901;-74
2022/07/05 15:08:27;;;;;;;9.50;9.07;;;;;;;22.62;100.00;102479.34;1995541;71;30870;-74
2022/07/05 15:14:14;;;;;;;9.73;9.03;;;;;;;22.57;100.00;102480.89;1997351;71;30966;-74
2022/07/05 15:19:58;;;;;;;9.55;9.15;;;;;;;22.55;100.00;102481.78;2015305;71;30955;-74
2022/07/05 15:25:42;;;;;;;10.32;9.63;;;;;;;22.66;100.00;102485.44;2012082;71;30852;-74
2022/07/05 15:31:27;;;;;;;10.30;9.80;;;;;;;22.92;100.00;102486.97;2009931;71;31382;-72
2022/07/05 15:37:12;;;;;;;9.85;9.45;;;;;;;23.01;100.00;102479.91;2002884;71;31401;-73
2022/07/05 15:42:56;;;;;;;9.75;9.35;;;;;;;22.97;100.00;102486.83;1977804;72;31053;-71
2022/07/05 15:48:39;;;;;;;9.23;8.83;;;;;;;22.80;100.00;102487.35;2002728;71;30870;-74
2022/07/05 15:54:24;;;;;;;9.70;9.10;;;;;;;22.44;100.00;102498.83;1997375;71;30806;-74
2022/07/05 16:00:11;;;;;;;9.55;9.05;;;;;;;22.78;100.00;102492.50;1991967;71;31426;-72
2022/07/05 16:05:56;;;;;;;9.80;9.30;;;;;;;23.03;100.00;102485.48;2017137;71;31427;-71
2022/07/05 16:11:40;;;;;;;9.28;8.78;;;;;;;22.99;100.00;102484.48;2019188;71;31486;-73
2022/07/05 16:17:26;;;;;;;10.30;9.60;;;;;;;22.90;100.00;102484.20;2006405;71;30905;-75
2022/07/05 16:23:10;;;;;;;10.28;9.60;;;;;;;22.94;100.00;102495.13;2015390;71;30966;-74
2022/07/05 16:28:54;;;;;;;10.25;9.60;;;;;;;22.95;100.00;102487.72;2001103;71;30837;-74
2022/07/05 16:34:38;;;;;;;10.48;9.80;;;;;;;23.04;100.00;102480.08;2017133;71;30860;-74
2022/07/05 16:40:22;;;;;;;10.65;10.15;;;;;;;22.75;100.00;102484.66;1991724;71;30823;-74
2022/07/05 16:46:08;;;;;;;10.72;10.00;;;;;;;22.52;100.00;102481.03;2004225;71;30883;-75
2022/07/05 16:51:54;;;;;;;12.88;12.23;;;;;;;22.56;100.00;102472.13;2006459;71;30872;-75
2022/07/05 16:57:38;;;;;;;10.78;10.28;;;;;;;23.10;100.00;102474.48;2002916;71;30915;-74
2022/07/05 17:03:24;;;;;;;11.10;10.50;;;;;;;23.02;100.00;102479.55;1999028;71;30878;-75
2022/07/05 17:09:08;;;;;;;10.40;9.90;;;;;;;23.01;100.00;102477.07;2005834;71;30896;-77
2022/07/05 17:14:53;;;;;;;11.12;10.53;;;;;;;22.91;100.00;102481.62;2000923;71;30916;-76
2022/07/05 17:20:39;;;;;;;10.48;9.93;;;;;;;23.12;100.00;102467.91;2004915;71;31444;-79
2022/07/05 17:26:27;;;;;;;9.90;9.50;;;;;;;23.39;100.00;102465.36;2011299;71;31066;-71
2022/07/05 17:32:11;;;;;;;9.65;9.13;;;;;;;23.34;100.00;102473.19;2015540;71;30929;-72
2022/07/05 17:37:57;;;;;;;9.88;9.45;;;;;;;22.92;100.00;102489.80;2005988;71;30965;-73
2022/07/05 17:43:45;;;;;;;9.68;9.25;;;;;;;22.67;100.00;102488.53;2002404;71;30973;-73
2022/07/05 17:49:29;;;;;;;10.30;9.80;;;;;;;22.41;100.00;102490.99;2016898;71;30955;-70
2022/07/05 17:55:13;;;;;;;9.70;9.23;;;;;;;22.19;100.00;102496.11;2009486;71;30874;-71
2022/07/05 18:00:57;;;;;;;9.63;9.23;;;;;;;22.25;100.00;102487.72;2004204;71;30966;-73
2022/07/05 18:06:42;;;;;;;9.47;9.07;;;;;;;22.18;100.00;102488.78;2015205;70;30963;-73
2022/07/05 18:12:26;;;;;;;9.67;9.27;;;;;;;22.00;100.00;102485.58;2010286;71;31328;-72
2022/07/05 18:18:12;;;;;;;9.95;9.43;;;;;;;21.83;100.00;102497.58;2007893;71;30887;-72
2022/07/05 18:23:58;;;;;;;9.73;9.33;;;;;;;22.06;100.00;102496.45;2009551;71;30988;-71
2022/07/05 18:29:42;;;;;;;9.60;9.20;;;;;;;22.01;100.00;102493.75;2000335;71;30942;-72
2022/07/05 18:35:26;;;;;;;9.70;9.30;;;;;;;21.94;100.00;102491.13;2011496;70;31496;-73
2022/07/05 18:41:11;;;;;;;9.53;9.13;;;;;;;21.89;100.00;102494.05;1994525;71;31299;-73
2022/07/05 18:46:55;;;;;;;9.40;9.00;;;;;;;22.01;100.00;102490.92;2016879;71;30911;-73
2022/07/05 18:52:40;;;;;;;9.60;9.10;;;;;;;22.24;100.00;102489.75;2012118;71;33292;-72
2022/07/05 18:58:25;;;;;;;9.67;9.17;;;;;;;22.55;100.00;102486.88;2001131;71;30838;-74
2022/07/05 19:04:09;;;;;;;9.40;8.80;;;;;;;22.31;100.00;102494.09;2011412;71;31002;-71
2022/07/05 19:16:01;;;;;;;9.10;8.60;;;;;;;21.92;100.00;102493.40;2016829;71;31390;-71
2022/07/05 19:21:46;;;;;;;10.67;10.03;;;;;;;21.80;100.00;102506.14;2018622;71;30916;-73
2022/07/05 19:27:31;;;;;;;9.23;8.83;;;;;;;21.73;100.00;102509.17;1997253;71;30920;-71
2022/07/05 19:33:15;;;;;;;9.17;8.77;;;;;;;21.66;100.00;102511.02;1991846;71;30793;-70
2022/07/05 19:38:59;;;;;;;9.70;9.20;;;;;;;21.49;100.00;102508.03;2015034;71;30866;-71
2022/07/05 19:44:44;;;;;;;10.03;9.57;;;;;;;21.39;100.00;102517.35;2011570;71;31412;-71
2022/07/05 19:50:29;;;;;;;9.75;9.25;;;;;;;21.19;100.00;102520.05;1997300;71;30873;-71
2022/07/05 19:56:13;;;;;;;10.03;9.43;;;;;;;21.01;100.00;102520.39;2005650;71;30871;-72
2022/07/05 20:01:57;;;;;;;10.67;10.20;;;;;;;20.82;100.00;102518.28;2007715;71;30948;-70
2022/07/05 20:07:42;;;;;;;10.70;10.00;;;;;;;20.66;100.00;102535.28;2001149;71;32881;-71
2022/07/05 20:13:26;;;;;;;12.00;11.30;;;;;;;20.55;100.00;102547.33;2009635;71;30914;-73
2022/07/05 20:19:11;;;;;;;12.00;11.40;;;;;;;20.56;100.00;102554.66;2002726;71;31380;-73
2022/07/05 20:24:55;;;;;;;12.10;11.50;;;;;;;20.50;100.00;102561.54;2000929;71;30858;-71
2022/07/05 20:30:40;;;;;;;11.73;11.20;;;;;;;20.29;100.00;102563.03;2016746;71;33372;-70
2022/07/05 20:36:24;;;;;;;13.43;12.83;;;;;;;20.03;100.00;102575.89;2007858;71;30969;-70
2022/07/05 20:42:09;;;;;;;17.53;16.63;;;;;;;19.76;100.00;102584.52;2011366;71;31002;-71
2022/07/05 20:47:53;;;;;;;14.60;13.90;;;;;;;19.50;100.00;102586.88;2002906;71;30996;-72
2022/07/05 20:53:38;;;;;;;15.63;14.73;;;;;;;19.46;100.00;102587.78;2008109;71;30956;-69
2022/07/05 20:59:22;;;;;;;14.37;13.60;;;;;;;19.69;100.00;102597.30;2007846;71;30948;-72
2022/07/05 21:05:08;;;;;;;13.50;12.80;;;;;;;19.63;100.00;102605.02;2001132;71;31348;-70
2022/07/05 21:10:52;;;;;;;14.10;13.50;;;;;;;19.57;100.00;102609.60;2000895;71;30875;-71
2022/07/05 21:16:36;;;;;;;14.93;14.27;;;;;;;19.49;100.00;102621.83;2005731;71;30987;-71
2022/07/05 21:22:23;;;;;;;15.17;14.47;;;;;;;19.41;100.00;102635.73;2004284;71;30909;-70
2022/07/05 21:28:09;;;;;;;16.47;15.70;;;;;;;19.30;100.00;102642.61;2006390;71;30841;-71
2022/07/05 21:33:53;;;;;;;16.73;15.93;;;;;;;19.16;100.00;102646.75;2011505;71;33377;-71
2022/07/05 21:39:37;;;;;;;18.00;17.20;;;;;;;19.07;100.00;102656.99;2004524;71;30874;-71
2022/07/05 21:45:25;;;;;;;19.20;18.33;;;;;;;19.01;100.00;102664.65;2000959;71;30981;-70
2022/07/05 21:51:10;;;;;;;25.33;24.07;;;;;;;18.61;100.00;102679.95;2015162;71;31467;-72
2022/07/05 21:56:54;;;;;;;28.77;27.27;;;;;;;17.97;100.00;102682.95;2002898;71;31347;-71
2022/07/05 22:08:40;;;;;;;32.53;30.63;;;;;;;17.77;100.00;102703.31;1998688;71;30956;-71
2022/07/05 22:14:24;;;;;;;30.57;28.83;;;;;;;17.97;100.00;102705.44;2016901;71;31539;-70
2022/07/05 22:20:11;;;;;;;27.30;25.90;;;;;;;17.88;100.00;102700.18;2008000;71;30922;-71
2022/07/05 22:25:55;;;;;;;26.77;25.37;;;;;;;17.74;100.00;102699.12;2004047;71;31469;-72
2022/07/05 22:31:40;;;;;;;23.30;22.10;;;;;;;17.78;100.00;102712.03;1995154;71;30840;-71
2022/07/05 22:37:24;;;;;;;22.40;21.40;;;;;;;17.91;100.00;102706.62;2004147;71;30898;-71
2022/07/05 22:43:25;;;;;;;19.80;18.73;;;;;;;17.62;100.00;102705.64;2018583;71;31035;-71
2022/07/05 22:49:09;;;;;;;16.17;15.57;;;;;;;17.78;100.00;102715.69;2005965;71;33424;-71
2022/07/05 22:54:53;;;;;;;16.00;15.30;;;;;;;17.90;100.00;102708.30;2015238;71;32865;-71
2022/07/05 23:00:38;;;;;;;16.90;16.00;;;;;;;17.29;100.00;102715.55;2006491;71;30845;-71
2022/07/05 23:06:26;;;;;;;14.60;14.00;;;;;;;17.23;100.00;102724.56;2004640;71;32804;-71
2022/07/05 23:12:09;;;;;;;14.70;14.10;;;;;;;17.17;100.00;102741.14;1991888;71;32906;-72
2022/07/05 23:17:54;;;;;;;15.40;14.80;;;;;;;17.02;100.00;102739.77;2018707;71;32851;-72
2022/07/05 23:23:38;;;;;;;15.80;15.10;;;;;;;16.75;100.00;102742.88;1991487;71;30845;-71
2022/07/05 23:29:24;;;;;;;15.30;14.60;;;;;;;16.71;100.00;102747.92;2010132;71;32822;-70
2022/07/05 23:35:09;;;;;;;16.50;15.80;;;;;;;16.61;100.00;102748.75;1991573;71;30850;-72
2022/07/05 23:40:59;;;;;;;16.00;15.30;;;;;;;16.50;100.00;102748.45;2015382;71;32921;-71
2022/07/05 23:46:45;;;;;;;14.67;14.07;;;;;;;16.67;100.00;102751.86;2016831;70;32886;-71
2022/07/05 23:52:30;;;;;;;15.30;14.60;;;;;;;17.04;100.00;102750.14;2004497;71;32889;-71
2022/07/05 23:58:14;;;;;;;14.57;13.93;;;;;;;16.77;100.00;102753.24;1998000;71;33032;-71
